sensor_id;sensor_type;location;lat;lon;timestamp;P1;durP1;ratioP1;P2;durP2;ratioP2
42666;SDS011;28280;49.646;14.130;2023-02-25T00:02:10;2.35;;;1.30;;
42666;SDS011;28280;49.646;14.130;2023-02-25T00:12:31;1.42;;;1.02;;
42666;SDS011;28280;49.646;14.130;2023-02-25T00:22:52;2.45;;;1.27;;
42666;SDS011;28280;49.646;14.130;2023-02-25T00:33:13;3.30;;;1.20;;
42666;SDS011;28280;49.646;14.130;2023-02-25T00:43:35;1.42;;;0.90;;
42666;SDS011;28280;49.646;14.130;2023-02-25T00:53:57;1.55;;;0.95;;
42666;SDS011;28280;49.646;14.130;2023-02-25T01:04:19;1.02;;;0.80;;
42666;SDS011;28280;49.646;14.130;2023-02-25T01:14:41;1.80;;;0.90;;
42666;SDS011;28280;49.646;14.130;2023-02-25T01:25:04;1.77;;;1.10;;
42666;SDS011;28280;49.646;14.130;2023-02-25T01:35:30;1.43;;;1.07;;
42666;SDS011;28280;49.646;14.130;2023-02-25T01:45:52;1.85;;;1.30;;
42666;SDS011;28280;49.646;14.130;2023-02-25T01:56:15;2.50;;;1.30;;
42666;SDS011;28280;49.646;14.130;2023-02-25T02:06:39;1.63;;;1.17;;
42666;SDS011;28280;49.646;14.130;2023-02-25T02:38:35;1.50;;;1.27;;
42666;SDS011;28280;49.646;14.130;2023-02-25T02:49:10;2.63;;;1.25;;
42666;SDS011;28280;49.646;14.130;2023-02-25T03:10:03;1.70;;;1.40;;
42666;SDS011;28280;49.646;14.130;2023-02-25T03:20:28;2.17;;;1.30;;
42666;SDS011;28280;49.646;14.130;2023-02-25T03:31:02;1.40;;;1.20;;
42666;SDS011;28280;49.646;14.130;2023-02-25T03:41:29;1.85;;;1.23;;
42666;SDS011;28280;49.646;14.130;2023-02-25T04:02:18;1.45;;;1.05;;
42666;SDS011;28280;49.646;14.130;2023-02-25T04:12:41;3.75;;;1.00;;
42666;SDS011;28280;49.646;14.130;2023-02-25T04:23:03;1.70;;;1.00;;
42666;SDS011;28280;49.646;14.130;2023-02-25T04:33:24;2.03;;;1.20;;
42666;SDS011;28280;49.646;14.130;2023-02-25T04:43:45;1.20;;;1.00;;
42666;SDS011;28280;49.646;14.130;2023-02-25T04:54:06;2.80;;;0.98;;
42666;SDS011;28280;49.646;14.130;2023-02-25T05:04:29;2.33;;;0.90;;
42666;SDS011;28280;49.646;14.130;2023-02-25T05:14:50;4.60;;;1.05;;
42666;SDS011;28280;49.646;14.130;2023-02-25T05:25:11;2.47;;;1.00;;
42666;SDS011;28280;49.646;14.130;2023-02-25T05:35:32;1.73;;;1.02;;
42666;SDS011;28280;49.646;14.130;2023-02-25T05:45:55;1.80;;;1.08;;
42666;SDS011;28280;49.646;14.130;2023-02-25T05:56:21;2.63;;;1.38;;
42666;SDS011;28280;49.646;14.130;2023-02-25T06:06:45;2.17;;;1.50;;
42666;SDS011;28280;49.646;14.130;2023-02-25T06:17:09;3.92;;;1.30;;
42666;SDS011;28280;49.646;14.130;2023-02-25T06:27:31;2.53;;;1.40;;
42666;SDS011;28280;49.646;14.130;2023-02-25T06:37:56;2.35;;;1.30;;
42666;SDS011;28280;49.646;14.130;2023-02-25T06:48:19;2.57;;;1.33;;
42666;SDS011;28280;49.646;14.130;2023-02-25T06:58:40;2.78;;;1.50;;
42666;SDS011;28280;49.646;14.130;2023-02-25T07:09:02;2.47;;;1.20;;
42666;SDS011;28280;49.646;14.130;2023-02-25T07:19:24;4.00;;;1.30;;
42666;SDS011;28280;49.646;14.130;2023-02-25T07:29:45;3.58;;;1.38;;
42666;SDS011;28280;49.646;14.130;2023-02-25T07:40:07;3.85;;;1.33;;
42666;SDS011;28280;49.646;14.130;2023-02-25T07:50:36;1.75;;;1.27;;
42666;SDS011;28280;49.646;14.130;2023-02-25T08:00:57;2.45;;;1.25;;
42666;SDS011;28280;49.646;14.130;2023-02-25T08:11:20;2.55;;;1.15;;
42666;SDS011;28280;49.646;14.130;2023-02-25T08:21:43;2.38;;;1.15;;
42666;SDS011;28280;49.646;14.130;2023-02-25T08:32:05;2.08;;;0.90;;
42666;SDS011;28280;49.646;14.130;2023-02-25T08:42:27;2.05;;;1.02;;
42666;SDS011;28280;49.646;14.130;2023-02-25T08:52:49;1.70;;;1.00;;
42666;SDS011;28280;49.646;14.130;2023-02-25T09:03:10;2.22;;;1.02;;
42666;SDS011;28280;49.646;14.130;2023-02-25T09:13:32;3.25;;;1.20;;
42666;SDS011;28280;49.646;14.130;2023-02-25T09:23:53;5.38;;;1.65;;
42666;SDS011;28280;49.646;14.130;2023-02-25T09:34:15;2.65;;;1.27;;
42666;SDS011;28280;49.646;14.130;2023-02-25T09:44:46;1.42;;;0.90;;
42666;SDS011;28280;49.646;14.130;2023-02-25T10:27:20;2.13;;;1.00;;
42666;SDS011;28280;49.646;14.130;2023-02-25T10:37:46;1.52;;;0.82;;
42666;SDS011;28280;49.646;14.130;2023-02-25T10:48:20;4.15;;;1.20;;
42666;SDS011;28280;49.646;14.130;2023-02-25T10:58:44;1.77;;;0.90;;
42666;SDS011;28280;49.646;14.130;2023-02-25T11:19:41;1.55;;;0.90;;
42666;SDS011;28280;49.646;14.130;2023-02-25T11:30:06;1.92;;;0.90;;
42666;SDS011;28280;49.646;14.130;2023-02-25T11:40:40;1.90;;;0.90;;
42666;SDS011;28280;49.646;14.130;2023-02-25T12:22:46;2.95;;;1.60;;
42666;SDS011;28280;49.646;14.130;2023-02-25T12:43:54;3.33;;;1.20;;
42666;SDS011;28280;49.646;14.130;2023-02-25T13:26:58;3.22;;;1.30;;
42666;SDS011;28280;49.646;14.130;2023-02-25T13:58:54;2.72;;;1.50;;
42666;SDS011;28280;49.646;14.130;2023-02-25T14:20:36;2.28;;;1.48;;
42666;SDS011;28280;49.646;14.130;2023-02-25T14:41:56;2.03;;;1.30;;
42666;SDS011;28280;49.646;14.130;2023-02-25T14:52:47;2.42;;;1.23;;
42666;SDS011;28280;49.646;14.130;2023-02-25T15:13:50;2.65;;;1.50;;
42666;SDS011;28280;49.646;14.130;2023-02-25T15:24:38;2.35;;;1.25;;
42666;SDS011;28280;49.646;14.130;2023-02-25T15:35:02;2.45;;;1.40;;
42666;SDS011;28280;49.646;14.130;2023-02-25T16:06:11;2.20;;;1.42;;
42666;SDS011;28280;49.646;14.130;2023-02-25T16:16:46;2.58;;;1.23;;
42666;SDS011;28280;49.646;14.130;2023-02-25T16:38:03;2.50;;;1.48;;
42666;SDS011;28280;49.646;14.130;2023-02-25T16:48:34;2.28;;;1.30;;
42666;SDS011;28280;49.646;14.130;2023-02-25T17:09:34;2.72;;;1.67;;
42666;SDS011;28280;49.646;14.130;2023-02-25T17:19:55;3.13;;;1.60;;
42666;SDS011;28280;49.646;14.130;2023-02-25T17:30:37;3.33;;;2.03;;
42666;SDS011;28280;49.646;14.130;2023-02-25T17:41:06;3.35;;;1.95;;
42666;SDS011;28280;49.646;14.130;2023-02-25T17:51:34;3.10;;;1.70;;
42666;SDS011;28280;49.646;14.130;2023-02-25T18:01:57;2.55;;;1.65;;
42666;SDS011;28280;49.646;14.130;2023-02-25T18:12:30;4.47;;;2.10;;
42666;SDS011;28280;49.646;14.130;2023-02-25T18:22:59;3.15;;;1.90;;
42666;SDS011;28280;49.646;14.130;2023-02-25T18:33:41;4.03;;;1.85;;
42666;SDS011;28280;49.646;14.130;2023-02-25T18:44:02;2.83;;;1.52;;
42666;SDS011;28280;49.646;14.130;2023-02-25T18:54:24;2.65;;;1.63;;
42666;SDS011;28280;49.646;14.130;2023-02-25T19:04:46;2.20;;;1.33;;
42666;SDS011;28280;49.646;14.130;2023-02-25T19:15:10;2.53;;;1.27;;
42666;SDS011;28280;49.646;14.130;2023-02-25T19:25:34;2.20;;;1.20;;
42666;SDS011;28280;49.646;14.130;2023-02-25T19:35:55;3.08;;;1.55;;
42666;SDS011;28280;49.646;14.130;2023-02-25T19:46:17;1.60;;;1.00;;
42666;SDS011;28280;49.646;14.130;2023-02-25T19:56:38;2.30;;;1.25;;
42666;SDS011;28280;49.646;14.130;2023-02-25T20:07:00;1.70;;;1.10;;
42666;SDS011;28280;49.646;14.130;2023-02-25T20:17:21;2.03;;;1.02;;
42666;SDS011;28280;49.646;14.130;2023-02-25T20:27:44;1.73;;;1.20;;
42666;SDS011;28280;49.646;14.130;2023-02-25T20:38:13;2.03;;;1.10;;
42666;SDS011;28280;49.646;14.130;2023-02-25T20:48:56;1.23;;;0.90;;
42666;SDS011;28280;49.646;14.130;2023-02-25T20:59:17;2.08;;;1.20;;
42666;SDS011;28280;49.646;14.130;2023-02-25T21:09:39;1.50;;;1.10;;
42666;SDS011;28280;49.646;14.130;2023-02-25T21:20:00;1.67;;;1.10;;
42666;SDS011;28280;49.646;14.130;2023-02-25T21:30:21;1.80;;;1.10;;
42666;SDS011;28280;49.646;14.130;2023-02-25T21:40:42;1.83;;;1.25;;
42666;SDS011;28280;49.646;14.130;2023-02-25T21:51:04;1.77;;;1.20;;
42666;SDS011;28280;49.646;14.130;2023-02-25T22:01:26;2.88;;;1.88;;
42666;SDS011;28280;49.646;14.130;2023-02-25T22:11:49;2.60;;;1.30;;
42666;SDS011;28280;49.646;14.130;2023-02-25T22:22:11;3.40;;;1.70;;
42666;SDS011;28280;49.646;14.130;2023-02-25T22:32:34;2.63;;;1.60;;
42666;SDS011;28280;49.646;14.130;2023-02-25T22:42:56;3.10;;;1.70;;
42666;SDS011;28280;49.646;14.130;2023-02-25T22:53:18;3.28;;;1.83;;
42666;SDS011;28280;49.646;14.130;2023-02-25T23:03:39;2.42;;;1.30;;
42666;SDS011;28280;49.646;14.130;2023-02-25T23:14:03;2.22;;;1.50;;
42666;SDS011;28280;49.646;14.130;2023-02-25T23:24:25;1.90;;;1.33;;
42666;SDS011;28280;49.646;14.130;2023-02-25T23:34:46;3.33;;;1.45;;
42666;SDS011;28280;49.646;14.130;2023-02-25T23:45:10;1.30;;;1.13;;
42666;SDS011;28280;49.646;14.130;2023-02-25T23:55:34;2.33;;;1.45;;
